createdAt,value
2019-01-18T00:01:46.071Z,99038.81
2019-01-18T00:04:48.122Z,99041.55
2019-01-18T00:07:50.087Z,99050.25
2019-01-18T00:10:52.433Z,99046.95
2019-01-18T00:13:54.453Z,99066.77
2019-01-18T00:16:56.447Z,99062.95
2019-01-18T00:19:59.386Z,99069.16
2019-01-18T00:23:01.340Z,99069.17
2019-01-18T00:26:03.570Z,99063.70
2019-01-18T00:29:05.527Z,99075.12
2019-01-18T00:32:07.481Z,99074.00
2019-01-18T00:35:09.447Z,99081.63
2019-01-18T00:38:11.358Z,99087.59
2019-01-18T00:41:13.832Z,99091.06
2019-01-18T00:44:15.748Z,99094.05
2019-01-18T00:47:17.784Z,99100.04
2019-01-18T00:50:20.212Z,99092.38
2019-01-18T00:53:22.173Z,99098.34
2019-01-18T00:56:25.354Z,99105.05
2019-01-18T00:59:27.327Z,99115.92
2019-01-18T01:02:29.415Z,99115.63
2019-01-18T01:05:31.408Z,99099.27
2019-01-18T01:08:33.321Z,99105.23
2019-01-18T01:11:35.319Z,99109.05
2019-01-18T01:14:37.248Z,99102.48
2019-01-18T01:17:39.573Z,99089.39
2019-01-18T01:20:41.534Z,99090.70
2019-01-18T01:23:43.440Z,99097.46
2019-01-18T01:26:46.002Z,99106.58
2019-01-18T01:29:47.943Z,99121.17
2019-01-18T01:32:50.446Z,99123.02
2019-01-18T01:35:52.546Z,99138.72
2019-01-18T01:38:54.537Z,99137.63
2019-01-18T01:41:56.506Z,99143.83
2019-01-18T01:44:58.492Z,99130.48
2019-01-18T01:48:00.440Z,99138.61
2019-01-18T01:51:02.337Z,99139.03
2019-01-18T01:54:04.324Z,99137.34
2019-01-18T01:57:06.226Z,99141.08
2019-01-18T02:00:16.531Z,99139.92
2019-01-18T02:03:18.711Z,99145.83
2019-01-18T02:06:20.853Z,99140.61
2019-01-18T02:09:22.913Z,99146.20
2019-01-18T02:12:24.832Z,99148.06
2019-01-18T02:15:26.760Z,99156.81
2019-01-18T02:18:28.820Z,99153.02
2019-01-18T02:21:30.779Z,99155.73
2019-01-18T02:24:32.721Z,99151.66
2019-01-18T02:27:34.953Z,99155.19
2019-01-18T02:30:36.977Z,99156.31
2019-01-18T02:33:39.005Z,99156.38
2019-01-18T02:36:41.121Z,99147.16
2019-01-18T02:39:43.079Z,99153.16
2019-01-18T02:42:45.093Z,99156.14
2019-01-18T02:45:47.344Z,99167.30
2019-01-18T02:48:49.529Z,99169.71
2019-01-18T02:51:51.714Z,99168.69
2019-01-18T02:54:53.670Z,99171.17
2019-01-18T02:57:55.703Z,99195.64
2019-01-18T03:00:57.671Z,99196.45
2019-01-18T03:03:59.827Z,99186.84
2019-01-18T03:07:01.915Z,99216.05
2019-01-18T03:10:10.509Z,99213.53
2019-01-18T03:13:12.425Z,99213.42
2019-01-18T03:16:14.361Z,99221.70
2019-01-18T03:19:16.257Z,99230.30
2019-01-18T03:22:18.243Z,99233.21
2019-01-18T03:25:22.668Z,99239.09
2019-01-18T03:28:24.637Z,99252.34
2019-01-18T03:31:28.272Z,99253.87
2019-01-18T03:34:30.527Z,99243.98
2019-01-18T03:37:32.673Z,99261.79
2019-01-18T03:40:34.626Z,99260.16
2019-01-18T03:43:36.552Z,99253.02
2019-01-18T03:46:38.487Z,99263.86
2019-01-18T03:49:40.390Z,99253.83
2019-01-18T03:52:43.059Z,99248.64
2019-01-18T03:55:45.103Z,99254.64
2019-01-18T03:58:47.280Z,99253.02
2019-01-18T04:01:49.292Z,99247.59
2019-01-18T04:04:51.404Z,99259.02
2019-01-18T04:07:53.296Z,99262.28
2019-01-18T04:10:55.240Z,99271.28
2019-01-18T04:13:57.338Z,99272.08
2019-01-18T04:16:59.319Z,99275.66
2019-01-18T04:20:01.271Z,99279.72
2019-01-18T04:23:03.207Z,99271.09
2019-01-18T04:26:05.172Z,99274.57
2019-01-18T04:29:07.118Z,99278.64
2019-01-18T04:32:10.792Z,99284.06
2019-01-18T04:35:13.222Z,99280.53
2019-01-18T04:38:15.141Z,99275.44
2019-01-18T04:41:17.474Z,99293.92
2019-01-18T04:44:19.411Z,99300.42
2019-01-18T04:47:21.455Z,99307.39
2019-01-18T04:50:25.456Z,99311.94
2019-01-18T04:53:27.451Z,99313.80
2019-01-18T04:56:29.374Z,99315.91
2019-01-18T04:59:31.280Z,99321.38
2019-01-18T05:02:33.199Z,99313.39
2019-01-18T05:05:35.338Z,99327.23
2019-01-18T05:08:37.274Z,99329.00
2019-01-18T05:11:39.223Z,99339.77
2019-01-18T05:14:41.154Z,99340.04
2019-01-18T05:17:43.380Z,99348.39
2019-01-18T05:20:48.377Z,99348.89
2019-01-18T05:23:50.305Z,99359.93
2019-01-18T05:26:52.254Z,99362.50
2019-01-18T05:29:54.225Z,99367.60
2019-01-18T05:32:56.976Z,99366.73
2019-01-18T05:35:59.064Z,99373.03
2019-01-18T05:39:01.043Z,99379.81
2019-01-18T05:42:03.282Z,99381.16
2019-01-18T05:45:08.884Z,99398.07
2019-01-18T05:48:10.878Z,99400.25
2019-01-18T05:51:12.939Z,99409.15
2019-01-18T05:54:16.003Z,99412.45
2019-01-18T05:57:17.981Z,99408.59
2019-01-18T06:00:30.353Z,99406.83
2019-01-18T06:03:32.308Z,99419.03
2019-01-18T06:06:34.375Z,99428.63
2019-01-18T06:09:36.252Z,99436.59
2019-01-18T06:12:38.263Z,99452.27
2019-01-18T06:15:40.547Z,99452.70
2019-01-18T06:18:42.859Z,99453.42
2019-01-18T06:21:44.829Z,99463.30
2019-01-18T06:24:46.809Z,99462.38
2019-01-18T06:27:49.927Z,99475.66
2019-01-18T06:30:51.894Z,99477.31
2019-01-18T06:33:53.938Z,99488.97
2019-01-18T06:36:55.981Z,99496.55
2019-01-18T06:39:57.988Z,99504.95
2019-01-18T06:42:59.894Z,99514.00
2019-01-18T06:46:01.891Z,99521.75
2019-01-18T06:49:05.438Z,99525.38
2019-01-18T06:52:07.518Z,99536.56
2019-01-18T06:55:10.446Z,99547.33
2019-01-18T06:58:12.467Z,99558.30
2019-01-18T07:01:14.390Z,99559.05
2019-01-18T07:04:16.444Z,99560.45
2019-01-18T07:07:18.449Z,99571.38
2019-01-18T07:10:22.656Z,99578.92
2019-01-18T07:13:24.602Z,99585.80
2019-01-18T07:16:26.683Z,99592.05
2019-01-18T07:19:28.671Z,99606.01
2019-01-18T07:22:31.903Z,99609.41
2019-01-18T07:25:33.811Z,99606.47
2019-01-18T07:28:35.790Z,99619.20
2019-01-18T07:31:37.730Z,99624.41
2019-01-18T07:34:40.093Z,99633.83
2019-01-18T07:37:42.039Z,99643.53
2019-01-18T07:40:45.143Z,99642.29
2019-01-18T07:43:47.279Z,99645.10
2019-01-18T07:46:49.422Z,99656.46
2019-01-18T07:49:51.355Z,99656.20
2019-01-18T07:52:53.599Z,99677.70
2019-01-18T07:55:55.496Z,99682.55
2019-01-18T07:58:57.909Z,99687.84
2019-01-18T08:01:59.852Z,99690.61
2019-01-18T08:05:01.856Z,99692.17
2019-01-18T08:08:05.183Z,99705.66
2019-01-18T08:11:07.161Z,99731.19
2019-01-18T08:14:09.505Z,99733.48
2019-01-18T08:17:11.457Z,99738.36
2019-01-18T08:20:15.907Z,99772.88
2019-01-18T08:23:18.939Z,99758.42
2019-01-18T08:26:20.882Z,99767.25
2019-01-18T08:29:22.846Z,99782.44
2019-01-18T08:32:24.805Z,99794.72
2019-01-18T08:35:27.564Z,99810.72
2019-01-18T08:38:30.645Z,99809.00
2019-01-18T08:41:33.467Z,99819.84
2019-01-18T08:44:35.460Z,99825.55
2019-01-18T08:47:37.457Z,99839.25
2019-01-18T08:50:40.416Z,99845.25
2019-01-18T08:53:42.788Z,99856.39
2019-01-18T08:56:44.699Z,99856.75
2019-01-18T08:59:47.488Z,99863.37
2019-01-18T09:02:49.603Z,99878.99
2019-01-18T09:05:51.599Z,99900.89
2019-01-18T09:08:53.729Z,99890.86
2019-01-18T09:11:55.728Z,99903.67
2019-01-18T09:14:57.738Z,99921.12
2019-01-18T09:17:59.894Z,99924.84
2019-01-18T09:21:02.735Z,99921.98
2019-01-18T09:24:04.737Z,99935.08
2019-01-18T09:27:06.672Z,99939.10
2019-01-18T09:30:14.980Z,99948.66
2019-01-18T09:33:16.903Z,99946.02
2019-01-18T09:36:19.415Z,99957.98
2019-01-18T09:39:21.395Z,99959.19
2019-01-18T09:42:23.507Z,99971.98
2019-01-18T09:45:25.505Z,99971.23
2019-01-18T09:48:27.462Z,99975.97
2019-01-18T09:51:29.413Z,99986.55
2019-01-18T09:54:31.419Z,99983.71
2019-01-18T09:57:33.317Z,100004.42
2019-01-18T10:00:37.098Z,100000.95
2019-01-18T10:03:40.193Z,100007.95
2019-01-18T10:06:42.212Z,100011.66
2019-01-18T10:09:44.339Z,100023.87
2019-01-18T10:12:47.279Z,100024.95
2019-01-18T10:15:49.220Z,100023.41
2019-01-18T10:18:51.250Z,100032.73
2019-01-18T10:21:53.286Z,100049.22
2019-01-18T10:24:55.281Z,100044.14
2019-01-18T10:27:57.210Z,100050.89
2019-01-18T10:30:59.200Z,100061.94
2019-01-18T10:34:01.104Z,100058.27
2019-01-18T10:37:03.581Z,100064.80
2019-01-18T10:40:08.653Z,100072.09
2019-01-18T10:43:10.734Z,100066.56
2019-01-18T10:46:12.737Z,100079.09
2019-01-18T10:49:14.837Z,100083.92
2019-01-18T10:52:16.988Z,100093.66
2019-01-18T10:55:18.960Z,100103.98
2019-01-18T10:58:20.968Z,100104.59
2019-01-18T11:01:23.009Z,100110.61
2019-01-18T11:04:24.970Z,100112.89
2019-01-18T11:07:27.058Z,100105.64
2019-01-18T11:10:29.145Z,100111.64
2019-01-18T11:13:31.141Z,100116.94
2019-01-18T11:16:33.148Z,100123.98
2019-01-18T11:19:35.141Z,100125.16
2019-01-18T11:22:37.069Z,100129.48
2019-01-18T11:25:39.113Z,100141.74
2019-01-18T11:28:41.129Z,100138.70
2019-01-18T11:31:43.118Z,100143.33
2019-01-18T11:34:45.068Z,100149.48
2019-01-18T11:37:47.456Z,100158.98
2019-01-18T11:40:49.498Z,100161.99
2019-01-18T11:43:51.433Z,100168.08
2019-01-18T11:46:54.905Z,100174.12
2019-01-18T11:49:56.839Z,100177.62
2019-01-18T11:52:58.835Z,100185.27
2019-01-18T11:56:00.756Z,100189.06
2019-01-18T11:59:02.716Z,100187.31
2019-01-18T12:02:04.755Z,100183.98
2019-01-18T12:05:07.315Z,100194.85
2019-01-18T12:08:09.315Z,100209.16
2019-01-18T12:11:11.454Z,100195.86
2019-01-18T12:14:13.385Z,100208.66
2019-01-18T12:17:15.348Z,100208.12
2019-01-18T12:20:26.760Z,100207.25
2019-01-18T12:23:28.759Z,100216.84
2019-01-18T12:26:30.748Z,100214.70
2019-01-18T12:29:32.950Z,100222.57
2019-01-18T12:32:34.869Z,100229.90
2019-01-18T12:35:36.819Z,100234.97
2019-01-18T12:38:39.072Z,100237.25
2019-01-18T12:41:41.029Z,100241.55
2019-01-18T12:44:44.255Z,100254.03
2019-01-18T12:47:46.289Z,100254.62
2019-01-18T12:50:48.259Z,100257.02
2019-01-18T12:53:50.409Z,100262.53
2019-01-18T12:56:52.301Z,100261.84
2019-01-18T12:59:54.295Z,100266.24
2019-01-18T13:02:56.549Z,100267.06
2019-01-18T13:05:58.609Z,100279.66
2019-01-18T13:09:00.631Z,100276.34
2019-01-18T13:12:03.044Z,100276.55
2019-01-18T13:15:08.702Z,100286.58
2019-01-18T13:18:10.641Z,100279.93
2019-01-18T13:21:12.636Z,100294.87
2019-01-18T13:24:14.788Z,100297.30
2019-01-18T13:27:16.778Z,100297.91
2019-01-18T13:30:18.887Z,100309.46
2019-01-18T13:33:20.937Z,100304.83
2019-01-18T13:36:22.867Z,100316.31
2019-01-18T13:39:25.076Z,100323.71
2019-01-18T13:42:27.043Z,100327.08
2019-01-18T13:45:29.845Z,100327.62
2019-01-18T13:48:31.789Z,100332.23
2019-01-18T13:51:33.750Z,100339.85
2019-01-18T13:54:35.692Z,100344.72
2019-01-18T13:57:37.718Z,100355.44
2019-01-18T14:00:39.722Z,100351.13
2019-01-18T14:03:41.934Z,100352.08
2019-01-18T14:06:43.861Z,100357.88
2019-01-18T14:09:45.848Z,100362.52
2019-01-18T14:12:48.237Z,100364.23
2019-01-18T14:15:50.197Z,100366.10
2019-01-18T14:18:52.224Z,100361.41
2019-01-18T14:21:54.204Z,100364.04
2019-01-18T14:24:56.223Z,100370.80
2019-01-18T14:27:58.125Z,100378.70
2019-01-18T14:31:00.224Z,100381.33
2019-01-18T14:34:02.228Z,100384.50
2019-01-18T14:37:04.248Z,100388.57
2019-01-18T14:40:14.640Z,100390.42
2019-01-18T14:43:16.640Z,100392.91
2019-01-18T14:46:18.945Z,100398.08
2019-01-18T14:49:20.994Z,100397.89
2019-01-18T14:52:22.986Z,100402.39
2019-01-18T14:55:25.089Z,100408.05
2019-01-18T14:58:27.098Z,100413.41
2019-01-18T15:01:31.651Z,100415.09
2019-01-18T15:04:33.781Z,100421.56
2019-01-18T15:07:35.808Z,100430.25
2019-01-18T15:10:37.807Z,100428.16
2019-01-18T15:13:40.297Z,100425.78
2019-01-18T15:16:44.279Z,100435.98
2019-01-18T15:19:46.635Z,100438.72
2019-01-18T15:22:48.773Z,100447.03
2019-01-18T15:25:51.185Z,100441.44
2019-01-18T15:28:53.159Z,100446.95
2019-01-18T15:31:55.064Z,100451.33
2019-01-18T15:34:57.023Z,100454.67
2019-01-18T15:37:59.029Z,100463.19
2019-01-18T15:41:01.036Z,100469.25
2019-01-18T15:44:03.280Z,100468.52
2019-01-18T15:47:05.285Z,100465.70
2019-01-18T15:50:11.196Z,100481.30
2019-01-18T15:53:13.587Z,100483.48
2019-01-18T15:56:15.567Z,100475.48
2019-01-18T15:59:17.465Z,100484.31
2019-01-18T16:02:19.513Z,100486.27
2019-01-18T16:05:21.546Z,100488.37
2019-01-18T16:08:23.519Z,100487.09
2019-01-18T16:11:25.433Z,100483.97
2019-01-18T16:14:27.584Z,100487.09
2019-01-18T16:17:29.654Z,100494.37
2019-01-18T16:20:31.626Z,100496.44
2019-01-18T16:23:33.536Z,100498.09
2019-01-18T16:26:36.591Z,100495.39
2019-01-18T16:29:38.507Z,100500.49
2019-01-18T16:32:40.490Z,100501.20
2019-01-18T16:35:42.454Z,100500.38
2019-01-18T16:38:44.488Z,100504.51
2019-01-18T16:41:48.928Z,100506.38
2019-01-18T16:44:52.808Z,100509.78
2019-01-18T16:47:54.797Z,100510.08
2019-01-18T16:50:56.704Z,100513.83
2019-01-18T16:53:58.629Z,100520.25
2019-01-18T16:57:00.619Z,100523.36
2019-01-18T17:00:10.304Z,100527.94
2019-01-18T17:03:12.208Z,100527.17
2019-01-18T17:06:14.733Z,100525.28
2019-01-18T17:09:18.077Z,100532.90
2019-01-18T17:12:20.530Z,100530.38
2019-01-18T17:15:22.660Z,100537.33
2019-01-18T17:18:25.327Z,100542.00
2019-01-18T17:21:29.211Z,100540.31
2019-01-18T17:24:32.222Z,100538.95
2019-01-18T17:27:34.477Z,100540.41
2019-01-18T17:30:36.854Z,100536.75
2019-01-18T17:33:40.229Z,100536.75
2019-01-18T17:36:43.246Z,100533.28
2019-01-18T17:39:45.522Z,100540.56
2019-01-18T17:43:00.073Z,100545.84
2019-01-18T17:46:20.724Z,100549.16
2019-01-18T17:49:30.209Z,100547.56
2019-01-18T17:52:57.369Z,100547.41
2019-01-18T17:56:13.294Z,100549.77
2019-01-18T17:59:38.867Z,100550.95
2019-01-18T18:02:50.602Z,100554.36
2019-01-18T18:06:21.347Z,100552.66
2019-01-18T18:09:29.742Z,100561.25
2019-01-18T18:12:47.624Z,100562.77
2019-01-18T18:16:14.666Z,100561.73
2019-01-18T18:19:30.037Z,100567.13
2019-01-18T18:22:47.734Z,100579.33
2019-01-18T18:26:08.755Z,100574.33
2019-01-18T18:29:24.069Z,100577.75
2019-01-18T18:32:51.251Z,100582.20
2019-01-18T18:36:14.326Z,100572.84
2019-01-18T18:39:51.478Z,100582.20
2019-01-18T18:43:09.248Z,100579.89
2019-01-18T18:46:27.042Z,100582.33
2019-01-18T18:49:48.418Z,100578.80
2019-01-18T18:52:55.926Z,100586.68
2019-01-18T18:56:04.918Z,100583.33
2019-01-18T18:59:16.260Z,100590.73
2019-01-18T19:02:27.169Z,100592.39
2019-01-18T19:05:45.069Z,100596.13
2019-01-18T19:09:02.591Z,100595.81
2019-01-18T19:12:14.943Z,100595.11
2019-01-18T19:15:42.271Z,100593.94
2019-01-18T19:18:54.199Z,100596.72
2019-01-18T19:22:25.769Z,100599.53
2019-01-18T19:25:50.824Z,100602.23
2019-01-18T19:29:18.225Z,100612.45
2019-01-18T19:32:36.640Z,100616.02
2019-01-18T19:36:20.065Z,100621.73
2019-01-18T19:39:27.758Z,100632.38
2019-01-18T19:42:34.710Z,100640.13
2019-01-18T19:45:51.322Z,100638.77
2019-01-18T19:49:14.548Z,100643.20
2019-01-18T19:52:42.797Z,100642.92
2019-01-18T19:56:07.925Z,100641.29
2019-01-18T19:59:26.234Z,100637.97
2019-01-18T20:02:39.995Z,100639.66
2019-01-18T20:05:51.626Z,100646.41
2019-01-18T20:09:11.668Z,100650.79
2019-01-18T20:12:53.188Z,100651.25
2019-01-18T20:16:05.679Z,100645.91
2019-01-18T20:19:34.167Z,100658.17
2019-01-18T20:22:52.151Z,100658.69
2019-01-18T20:26:01.008Z,100659.75
2019-01-18T20:29:32.500Z,100662.50
2019-01-18T20:32:57.790Z,100671.05
2019-01-18T20:36:09.389Z,100669.75
2019-01-18T20:39:30.180Z,100670.27
2019-01-18T20:42:52.569Z,100676.27
2019-01-18T20:46:02.682Z,100677.41
2019-01-18T20:49:11.073Z,100678.95
2019-01-18T20:52:20.232Z,100676.41
2019-01-18T20:55:33.439Z,100674.86
2019-01-18T20:58:51.300Z,100673.14
2019-01-18T21:02:02.260Z,100682.91
2019-01-18T21:05:18.922Z,100682.62
2019-01-18T21:08:27.663Z,100686.01
2019-01-18T21:11:38.768Z,100681.30
2019-01-18T21:14:53.459Z,100676.44
2019-01-18T21:18:08.604Z,100678.95
2019-01-18T21:21:14.300Z,100679.33
2019-01-18T21:24:32.561Z,100680.33
2019-01-18T21:28:05.070Z,100685.55
2019-01-18T21:31:32.542Z,100686.44
2019-01-18T21:34:44.318Z,100690.36
2019-01-18T21:37:52.955Z,100685.91
2019-01-18T21:40:58.587Z,100687.27
2019-01-18T21:44:13.487Z,100689.61
2019-01-18T21:47:37.456Z,100692.88
2019-01-18T21:51:06.608Z,100691.25
2019-01-18T21:54:21.943Z,100692.20
2019-01-18T21:57:40.465Z,100687.77
2019-01-18T22:00:47.139Z,100687.25
2019-01-18T22:04:07.902Z,100698.02
2019-01-18T22:07:26.119Z,100687.72
2019-01-18T22:10:31.763Z,100687.23
2019-01-18T22:13:40.273Z,100684.86
2019-01-18T22:17:01.174Z,100685.47
2019-01-18T22:20:26.381Z,100682.71
2019-01-18T22:23:35.123Z,100683.02
2019-01-18T22:26:43.693Z,100691.08
2019-01-18T22:29:58.353Z,100683.92
2019-01-18T22:33:04.490Z,100695.14
2019-01-18T22:36:19.360Z,100690.93
2019-01-18T22:39:40.143Z,100688.23
2019-01-18T22:42:54.618Z,100695.66
2019-01-18T22:46:19.787Z,100685.99
2019-01-18T22:49:31.441Z,100676.51
2019-01-18T22:52:42.940Z,100682.22
2019-01-18T22:55:54.646Z,100679.89
2019-01-18T22:59:00.770Z,100683.73
2019-01-18T23:02:19.411Z,100683.92
2019-01-18T23:05:49.425Z,100683.22
2019-01-18T23:09:12.942Z,100688.96
2019-01-18T23:12:35.221Z,100690.38
2019-01-18T23:16:08.146Z,100684.67
2019-01-18T23:19:13.767Z,100688.39
2019-01-18T23:22:28.391Z,100691.14
2019-01-18T23:25:36.834Z,100688.92
2019-01-18T23:29:06.656Z,100689.07
2019-01-18T23:32:33.437Z,100683.02
2019-01-18T23:35:47.835Z,100680.60
2019-01-18T23:39:11.605Z,100679.47
2019-01-18T23:42:32.430Z,100677.44
2019-01-18T23:45:55.995Z,100668.42
2019-01-18T23:49:01.841Z,100664.86
2019-01-18T23:52:23.007Z,100660.98
2019-01-18T23:55:47.891Z,100663.11
2019-01-18T23:58:56.511Z,100664.45
